Time;durP1;ratioP1;P1;durP2;ratioP2;P2;SDS_P1;SDS_P2;PMS_P1;PMS_P2;Temp;Humidity;BMP_temperature;BMP_pressure;BME280_temperature;BME280_humidity;BME280_pressure;Samples;Min_cycle;Max_cycle;Signal;HPM_P1;HPM_P2
2022/02/06 00:01:36;;;;;;;37.67;6.65;;;;;;;;;;5099405;28;20040;-63
2022/02/06 00:04:02;;;;;;;44.08;7.13;;;;;;;;;;5102069;28;20040;-63
2022/02/06 00:06:31;;;;;;;47.63;7.75;;;;;;;;;;5102390;28;20524;-63
2022/02/06 00:08:57;;;;;;;46.30;7.18;;;;;;;;;;5095661;28;20043;-63
2022/02/06 00:11:23;;;;;;;49.85;7.85;;;;;;;;;;5099697;28;20046;-63
2022/02/06 00:13:50;;;;;;;52.85;8.90;;;;;;;;;;5105370;28;20075;-63
2022/02/06 00:16:16;;;;;;;36.53;7.22;;;;;;;;;;5109448;28;20126;-63
2022/02/06 00:18:44;;;;;;;45.45;6.38;;;;;;;;;;5107596;28;20059;-63
2022/02/06 00:21:14;;;;;;;43.58;6.45;;;;;;;;;;5106534;27;20070;-63
2022/02/06 00:23:41;;;;;;;48.17;8.00;;;;;;;;;;5104083;28;20051;-63
2022/02/06 00:26:19;;;;;;;48.97;7.80;;;;;;;;;;5101294;27;20043;-62
2022/02/06 00:28:58;;;;;;;45.72;7.90;;;;;;;;;;5113078;27;20448;-62
2022/02/06 00:31:36;;;;;;;49.90;7.07;;;;;;;;;;5101772;27;20040;-63
2022/02/06 00:34:32;;;;;;;49.58;7.28;;;;;;;;;;5105093;27;20072;-63
2022/02/06 00:39:40;;;;;;;44.70;8.32;;;;;;;;;;5105334;27;20039;-63
2022/02/06 00:42:06;;;;;;;53.08;7.25;;;;;;;;;;5116024;27;20050;-63
2022/02/06 00:44:32;;;;;;;44.35;7.47;;;;;;;;;;5111407;27;20047;-63
2022/02/06 00:47:02;;;;;;;47.58;7.70;;;;;;;;;;5112546;27;20044;-63
2022/02/06 00:49:30;;;;;;;42.22;6.60;;;;;;;;;;5106220;27;20465;-63
2022/02/06 00:52:15;;;;;;;45.78;6.60;;;;;;;;;;5105723;28;20127;-62
2022/02/06 00:54:41;;;;;;;45.17;9.05;;;;;;;;;;5111073;27;20051;-63
2022/02/06 00:57:08;;;;;;;60.45;9.57;;;;;;;;;;5111703;27;20408;-63
2022/02/06 00:59:34;;;;;;;45.20;6.53;;;;;;;;;;5102402;28;20040;-62
2022/02/06 01:02:00;;;;;;;48.55;8.10;;;;;;;;;;5104213;28;20108;-63
2022/02/06 01:04:28;;;;;;;32.60;5.95;;;;;;;;;;5106445;28;20047;-63
2022/02/06 01:06:54;;;;;;;42.78;6.07;;;;;;;;;;5107668;27;20112;-62
2022/02/06 01:09:20;;;;;;;43.55;7.75;;;;;;;;;;5101401;27;20172;-63
2022/02/06 01:11:49;;;;;;;40.50;7.45;;;;;;;;;;5103426;27;20042;-62
2022/02/06 01:14:37;;;;;;;42.15;8.32;;;;;;;;;;5108184;28;20043;-62
2022/02/06 01:17:25;;;;;;;45.28;6.07;;;;;;;;;;5108573;27;20080;-62
2022/02/06 01:20:00;;;;;;;50.88;8.18;;;;;;;;;;5105452;27;20067;-62
2022/02/06 01:22:28;;;;;;;37.83;7.10;;;;;;;;;;5107399;28;20054;-62
2022/02/06 01:25:02;;;;;;;35.63;5.30;;;;;;;;;;5107012;27;21704;-62
2022/02/06 01:27:38;;;;;;;37.30;7.80;;;;;;;;;;5109236;27;20059;-62
2022/02/06 01:30:19;;;;;;;41.25;5.93;;;;;;;;;;5106709;27;20116;-63
2022/02/06 01:33:01;;;;;;;39.80;6.03;;;;;;;;;;5106831;28;20083;-63
2022/02/06 01:35:35;;;;;;;50.97;6.88;;;;;;;;;;5104522;28;20044;-63
2022/02/06 01:40:42;;;;;;;39.58;6.90;;;;;;;;;;5105310;27;20067;-63
2022/02/06 01:43:15;;;;;;;27.83;4.82;;;;;;;;;;5104074;27;20071;-63
2022/02/06 01:46:08;;;;;;;29.77;6.13;;;;;;;;;;5105304;28;20040;-63
2022/02/06 02:02:39;;;;;;;42.72;7.03;;;;;;;;;;5117132;27;20036;-63
2022/02/06 02:08:13;;;;;;;46.25;7.28;;;;;;;;;;5107260;28;20095;-62
2022/02/06 02:16:19;;;;;;;32.13;5.93;;;;;;;;;;5101121;28;20052;-62
2022/02/06 02:21:41;;;;;;;32.08;5.63;;;;;;;;;;5105433;28;20040;-62
2022/02/06 02:27:00;;;;;;;47.10;7.85;;;;;;;;;;5096704;27;20055;-62
2022/02/06 02:48:02;;;;;;;40.88;7.05;;;;;;;;;;5098065;28;20132;-63
2022/02/06 02:50:30;;;;;;;45.50;7.13;;;;;;;;;;5094657;28;20617;-63
2022/02/06 02:53:11;;;;;;;49.58;7.82;;;;;;;;;;5096135;28;20504;-63
2022/02/06 02:55:56;;;;;;;35.88;6.22;;;;;;;;;;5101937;27;20118;-63
2022/02/06 02:58:31;;;;;;;44.25;7.13;;;;;;;;;;5099571;28;20043;-63
2022/02/06 03:01:10;;;;;;;37.92;6.38;;;;;;;;;;5106607;28;20051;-63
2022/02/06 03:03:39;;;;;;;42.55;6.57;;;;;;;;;;5109344;27;20054;-63
2022/02/06 03:06:06;;;;;;;40.92;9.52;;;;;;;;;;5109211;27;20035;-63
2022/02/06 03:08:35;;;;;;;47.45;7.13;;;;;;;;;;5106146;28;20406;-63
2022/02/06 03:11:05;;;;;;;32.72;6.55;;;;;;;;;;5095211;28;20488;-63
2022/02/06 03:16:18;;;;;;;36.10;7.10;;;;;;;;;;5123620;28;20058;-63
2022/02/06 03:19:02;;;;;;;40.20;7.60;;;;;;;;;;5106132;28;20040;-63
2022/02/06 03:21:30;;;;;;;39.78;7.50;;;;;;;;;;5103879;28;20484;-63
2022/02/06 03:24:06;;;;;;;35.28;5.72;;;;;;;;;;5105461;28;20396;-63
2022/02/06 03:26:32;;;;;;;40.88;6.43;;;;;;;;;;5107502;28;20051;-63
2022/02/06 03:28:58;;;;;;;23.70;4.78;;;;;;;;;;5096929;28;20040;-63
2022/02/06 03:31:25;;;;;;;36.92;7.03;;;;;;;;;;5097903;28;20119;-63
2022/02/06 03:33:51;;;;;;;34.50;5.35;;;;;;;;;;5102628;28;20552;-63
2022/02/06 03:36:18;;;;;;;37.08;6.43;;;;;;;;;;5098143;28;20055;-63
2022/02/06 03:38:46;;;;;;;41.75;6.07;;;;;;;;;;5098251;28;20040;-63
2022/02/06 03:41:13;;;;;;;31.13;5.03;;;;;;;;;;5100394;28;20043;-63
2022/02/06 03:44:06;;;;;;;40.17;5.32;;;;;;;;;;5099099;28;20087;-63
2022/02/06 03:46:38;;;;;;;46.83;6.65;;;;;;;;;;5103131;28;20059;-62
2022/02/06 03:49:14;;;;;;;39.13;7.75;;;;;;;;;;5092241;28;20083;-63
2022/02/06 03:51:40;;;;;;;44.10;6.43;;;;;;;;;;5106127;28;20561;-63
2022/02/06 03:54:09;;;;;;;33.47;4.72;;;;;;;;;;5112848;27;20043;-63
2022/02/06 03:56:35;;;;;;;30.67;5.43;;;;;;;;;;5108429;27;20141;-63
2022/02/06 03:59:03;;;;;;;32.22;5.57;;;;;;;;;;5104969;27;20043;-63
2022/02/06 04:01:29;;;;;;;38.17;6.03;;;;;;;;;;5109872;27;20039;-63
2022/02/06 04:03:55;;;;;;;34.17;5.20;;;;;;;;;;5111495;27;20144;-63
2022/02/06 04:06:23;;;;;;;30.80;5.15;;;;;;;;;;5122749;27;20048;-63
2022/02/06 04:08:50;;;;;;;37.08;6.30;;;;;;;;;;5110583;27;20399;-63
2022/02/06 04:11:21;;;;;;;35.00;6.68;;;;;;;;;;5109775;27;20047;-63
2022/02/06 04:13:57;;;;;;;35.35;5.88;;;;;;;;;;5125852;27;20143;-63
2022/02/06 04:16:39;;;;;;;33.40;6.05;;;;;;;;;;5113016;27;20047;-63
2022/02/06 04:19:18;;;;;;;34.10;5.70;;;;;;;;;;5118447;27;20039;-63
2022/02/06 04:21:45;;;;;;;35.22;5.40;;;;;;;;;;5109608;28;20052;-63
2022/02/06 04:24:11;;;;;;;36.35;5.70;;;;;;;;;;5116723;27;20044;-63
2022/02/06 04:26:37;;;;;;;38.47;5.72;;;;;;;;;;5111670;27;20043;-63
2022/02/06 04:29:04;;;;;;;37.95;6.22;;;;;;;;;;5110318;27;20039;-63
2022/02/06 04:31:31;;;;;;;45.15;6.60;;;;;;;;;;5109985;27;20112;-63
2022/02/06 04:33:57;;;;;;;46.13;6.20;;;;;;;;;;5110672;28;20048;-63
2022/02/06 04:36:30;;;;;;;39.53;5.85;;;;;;;;;;5108548;28;20047;-63
2022/02/06 04:41:57;;;;;;;;;;;;;;;;;;5107781;28;20047;-63
2022/02/06 04:50:04;;;;;;;33.10;5.47;;;;;;;;;;5107623;27;20047;-63
2022/02/06 04:53:16;;;;;;;33.30;5.57;;;;;;;;;;5104528;28;20452;-63
2022/02/06 04:55:32;;;;;;;30.98;4.85;;;;;;;;;;5101894;28;20048;-63
2022/02/06 05:12:25;;;;;;;43.67;5.03;;;;;;;;;;5099034;28;20563;-63
2022/02/06 05:14:47;;;;;;;34.10;4.97;;;;;;;;;;5103557;28;20051;-62
2022/02/06 05:20:26;;;;;;;28.85;4.82;;;;;;;;;;5103475;28;20054;-63
2022/02/06 05:22:58;;;;;;;39.67;6.90;;;;;;;;;;5097015;28;20134;-63
2022/02/06 05:28:25;;;;;;;28.25;4.72;;;;;;;;;;5101087;27;20035;-63
2022/02/06 05:30:58;;;;;;;31.38;4.88;;;;;;;;;;5109774;27;20502;-63
2022/02/06 05:33:25;;;;;;;29.80;4.28;;;;;;;;;;5102824;28;20058;-63
2022/02/06 05:35:51;;;;;;;34.42;4.55;;;;;;;;;;5102210;28;20040;-63
2022/02/06 05:38:17;;;;;;;39.97;8.10;;;;;;;;;;5094536;27;20430;-63
2022/02/06 05:40:43;;;;;;;32.60;5.50;;;;;;;;;;5107623;28;20047;-63
2022/02/06 05:43:09;;;;;;;26.98;4.90;;;;;;;;;;5107973;28;20502;-63
2022/02/06 05:45:35;;;;;;;39.63;6.28;;;;;;;;;;5094399;28;20122;-63
2022/02/06 05:48:01;;;;;;;26.30;5.63;;;;;;;;;;5103081;28;20336;-64
2022/02/06 05:50:27;;;;;;;34.30;5.10;;;;;;;;;;5105801;27;20036;-63
2022/02/06 05:52:54;;;;;;;45.83;7.20;;;;;;;;;;5099126;28;20488;-63
2022/02/06 05:55:20;;;;;;;33.63;5.75;;;;;;;;;;5096527;28;20130;-63
2022/02/06 05:57:46;;;;;;;36.72;5.05;;;;;;;;;;5100959;28;20052;-63
2022/02/06 06:00:13;;;;;;;48.05;5.10;;;;;;;;;;5108012;28;20061;-63
2022/02/06 06:02:39;;;;;;;35.00;5.93;;;;;;;;;;5108035;27;20498;-62
2022/02/06 06:05:05;;;;;;;32.42;5.05;;;;;;;;;;5105594;28;20143;-63
2022/02/06 06:07:32;;;;;;;41.80;7.13;;;;;;;;;;5092067;28;20495;-62
2022/02/06 06:09:58;;;;;;;36.03;6.07;;;;;;;;;;5107557;27;20054;-62
2022/02/06 06:12:24;;;;;;;34.80;6.07;;;;;;;;;;5109214;28;20040;-63
2022/02/06 06:14:50;;;;;;;31.83;4.78;;;;;;;;;;5107827;28;20051;-63
2022/02/06 06:17:17;;;;;;;42.00;5.78;;;;;;;;;;5103306;28;20069;-63
2022/02/06 06:19:46;;;;;;;31.75;4.63;;;;;;;;;;5127100;27;20047;-63
2022/02/06 06:22:13;;;;;;;28.58;4.88;;;;;;;;;;5110263;27;20090;-63
2022/02/06 06:24:43;;;;;;;27.38;4.53;;;;;;;;;;5110037;28;20154;-63
2022/02/06 06:27:09;;;;;;;26.55;4.25;;;;;;;;;;5111297;28;20044;-63
2022/02/06 06:29:35;;;;;;;28.98;5.15;;;;;;;;;;5101301;28;20130;-62
2022/02/06 06:32:02;;;;;;;31.70;6.35;;;;;;;;;;5104448;28;20506;-63
2022/02/06 06:34:28;;;;;;;26.67;5.07;;;;;;;;;;5099216;28;20118;-63
2022/02/06 06:36:54;;;;;;;26.63;4.13;;;;;;;;;;5099710;27;20431;-63
2022/02/06 06:39:32;;;;;;;30.17;5.63;;;;;;;;;;5122860;27;20040;-64
2022/02/06 06:41:59;;;;;;;33.65;4.38;;;;;;;;;;5111632;27;20394;-63
2022/02/06 06:44:25;;;;;;;31.35;5.47;;;;;;;;;;5125722;27;20066;-63
2022/02/06 06:46:51;;;;;;;34.67;4.45;;;;;;;;;;5110076;28;20047;-63
2022/02/06 06:49:17;;;;;;;22.27;4.40;;;;;;;;;;5111215;27;20036;-63
2022/02/06 06:51:44;;;;;;;26.98;5.25;;;;;;;;;;5108078;27;20612;-63
2022/02/06 06:54:15;;;;;;;29.40;4.60;;;;;;;;;;5109227;27;20360;-63
2022/02/06 06:56:52;;;;;;;24.35;5.35;;;;;;;;;;5105814;27;20058;-63
2022/02/06 06:59:29;;;;;;;31.10;4.88;;;;;;;;;;5090210;28;20039;-63
2022/02/06 07:02:16;;;;;;;39.22;6.25;;;;;;;;;;5110686;27;20456;-63
2022/02/06 07:04:42;;;;;;;28.00;4.47;;;;;;;;;;5108684;28;20097;-63
2022/02/06 07:07:08;;;;;;;40.70;8.18;;;;;;;;;;5109180;27;20403;-63
2022/02/06 07:09:34;;;;;;;34.38;5.15;;;;;;;;;;5106323;28;20046;-63
2022/02/06 07:12:00;;;;;;;28.55;4.93;;;;;;;;;;5106893;28;20044;-63
2022/02/06 07:14:27;;;;;;;31.42;5.63;;;;;;;;;;5109108;28;20043;-63
2022/02/06 07:16:53;;;;;;;36.28;4.88;;;;;;;;;;5107923;28;20051;-63
2022/02/06 07:19:19;;;;;;;31.65;4.10;;;;;;;;;;5109004;28;20465;-63
2022/02/06 07:21:46;;;;;;;28.40;3.55;;;;;;;;;;5108226;28;20131;-63
2022/02/06 07:24:15;;;;;;;31.58;4.68;;;;;;;;;;5109257;28;20098;-63
2022/02/06 07:26:42;;;;;;;34.22;5.18;;;;;;;;;;5107531;28;20502;-63
2022/02/06 07:29:11;;;;;;;32.17;4.38;;;;;;;;;;5111949;28;20049;-63
2022/02/06 07:31:41;;;;;;;29.50;4.05;;;;;;;;;;5129262;27;20456;-62
2022/02/06 07:34:08;;;;;;;36.28;6.40;;;;;;;;;;5112460;28;20394;-63
2022/02/06 07:36:34;;;;;;;32.70;5.07;;;;;;;;;;5111901;28;20052;-63
2022/02/06 07:39:00;;;;;;;28.23;4.88;;;;;;;;;;5111330;28;20036;-62
2022/02/06 07:41:26;;;;;;;43.95;5.63;;;;;;;;;;5114905;27;20039;-63
2022/02/06 07:43:52;;;;;;;40.88;6.03;;;;;;;;;;5112361;28;20051;-63
2022/02/06 07:46:23;;;;;;;37.08;5.68;;;;;;;;;;5113545;28;20495;-63
2022/02/06 07:48:49;;;;;;;28.48;4.55;;;;;;;;;;5110643;28;20048;-62
2022/02/06 07:51:15;;;;;;;28.75;4.43;;;;;;;;;;5111801;28;20055;-62
2022/02/06 07:53:41;;;;;;;34.22;4.47;;;;;;;;;;5113495;28;20082;-63
2022/02/06 07:56:07;;;;;;;31.55;3.80;;;;;;;;;;5113709;28;20043;-63
2022/02/06 07:58:34;;;;;;;34.83;5.28;;;;;;;;;;5111920;28;20089;-63
2022/02/06 08:01:00;;;;;;;38.03;3.92;;;;;;;;;;5112326;28;20060;-63
2022/02/06 08:03:26;;;;;;;26.17;4.07;;;;;;;;;;5113026;28;20112;-70
2022/02/06 08:05:53;;;;;;;21.95;4.15;;;;;;;;;;5113772;28;20039;-63
2022/02/06 08:08:19;;;;;;;29.17;5.32;;;;;;;;;;5111528;28;20135;-63
2022/02/06 08:10:45;;;;;;;28.85;4.85;;;;;;;;;;5113963;27;20566;-63
2022/02/06 08:13:22;;;;;;;30.35;6.03;;;;;;;;;;5117704;27;20400;-63
2022/02/06 08:15:48;;;;;;;24.60;4.20;;;;;;;;;;5112888;28;20069;-63
2022/02/06 08:18:14;;;;;;;27.55;4.07;;;;;;;;;;5112555;27;20172;-63
2022/02/06 08:20:41;;;;;;;31.65;5.47;;;;;;;;;;5112419;28;20217;-63
2022/02/06 08:23:07;;;;;;;27.67;5.45;;;;;;;;;;5114832;27;20058;-63
2022/02/06 08:25:34;;;;;;;30.15;4.43;;;;;;;;;;5114341;28;20108;-63
2022/02/06 08:28:02;;;;;;;33.83;4.70;;;;;;;;;;5113976;28;20110;-62
2022/02/06 08:30:30;;;;;;;36.78;5.65;;;;;;;;;;5112874;28;20046;-63
2022/02/06 08:32:56;;;;;;;32.25;5.82;;;;;;;;;;5113435;28;20079;-63
2022/02/06 08:35:23;;;;;;;27.95;5.35;;;;;;;;;;5129150;27;20047;-63
2022/02/06 08:37:50;;;;;;;40.58;6.68;;;;;;;;;;5113190;28;20049;-63
2022/02/06 08:40:17;;;;;;;31.50;4.82;;;;;;;;;;5111798;28;20051;-63
2022/02/06 08:42:44;;;;;;;33.22;5.78;;;;;;;;;;5112992;28;20051;-63
2022/02/06 08:45:12;;;;;;;28.35;4.22;;;;;;;;;;5112776;28;20047;-63
2022/02/06 08:47:39;;;;;;;31.42;5.28;;;;;;;;;;5112237;28;20040;-63
2022/02/06 08:50:06;;;;;;;33.33;4.90;;;;;;;;;;5111723;28;20142;-63
2022/02/06 08:52:33;;;;;;;35.10;5.38;;;;;;;;;;5112274;28;20083;-63
2022/02/06 08:55:00;;;;;;;36.40;4.93;;;;;;;;;;5113039;28;20190;-64
2022/02/06 08:57:26;;;;;;;31.60;4.22;;;;;;;;;;5106865;28;20055;-71
2022/02/06 08:59:54;;;;;;;22.08;3.80;;;;;;;;;;5112083;28;20047;-61
2022/02/06 09:02:20;;;;;;;36.85;4.47;;;;;;;;;;5112425;28;20089;-61
2022/02/06 09:04:46;;;;;;;32.78;4.15;;;;;;;;;;5112317;28;20039;-62
2022/02/06 09:07:13;;;;;;;38.55;5.90;;;;;;;;;;5106088;28;20115;-61
2022/02/06 09:09:44;;;;;;;25.10;5.07;;;;;;;;;;5111218;28;20048;-61
2022/02/06 09:12:10;;;;;;;29.73;5.00;;;;;;;;;;5116179;27;20035;-61
2022/02/06 09:14:37;;;;;;;23.20;4.50;;;;;;;;;;5109925;27;20120;-61
2022/02/06 09:17:03;;;;;;;33.05;4.18;;;;;;;;;;5110763;27;20044;-61
2022/02/06 09:19:31;;;;;;;27.55;3.53;;;;;;;;;;5109682;27;20035;-61
2022/02/06 09:21:59;;;;;;;37.75;6.78;;;;;;;;;;5109578;27;20047;-62
2022/02/06 09:24:25;;;;;;;26.38;4.70;;;;;;;;;;5112188;28;20250;-61
2022/02/06 09:26:51;;;;;;;45.50;6.68;;;;;;;;;;5103159;27;20070;-61
2022/02/06 09:29:18;;;;;;;29.17;3.90;;;;;;;;;;5104003;28;20043;-61
2022/02/06 09:31:49;;;;;;;44.55;6.35;;;;;;;;;;5128668;27;20051;-61
2022/02/06 09:36:42;;;;;;;20.83;4.22;;;;;;;;;;5106215;28;20506;-61
2022/02/06 09:39:09;;;;;;;13.60;2.88;;;;;;;;;;5113316;27;20130;-61
2022/02/06 09:41:37;;;;;;;18.35;3.15;;;;;;;;;;5117676;27;20058;-61
2022/02/06 09:44:04;;;;;;;19.27;2.85;;;;;;;;;;5109249;28;20203;-61
2022/02/06 09:46:31;;;;;;;14.30;2.10;;;;;;;;;;5106995;28;20043;-61
2022/02/06 09:48:58;;;;;;;9.80;1.63;;;;;;;;;;5097019;28;20130;-61
2022/02/06 09:51:24;;;;;;;10.27;1.80;;;;;;;;;;5105132;28;20390;-61
2022/02/06 09:53:50;;;;;;;17.98;1.73;;;;;;;;;;5089149;28;20032;-61
2022/02/06 09:56:17;;;;;;;15.73;2.42;;;;;;;;;;5098713;28;20075;-61
2022/02/06 09:58:56;;;;;;;17.20;1.90;;;;;;;;;;5094718;28;20044;-61
2022/02/06 10:01:24;;;;;;;10.45;1.75;;;;;;;;;;5093174;28;20040;-61
2022/02/06 10:03:52;;;;;;;18.58;3.13;;;;;;;;;;5104992;28;20462;-61
2022/02/06 10:06:21;;;;;;;12.43;2.25;;;;;;;;;;5107551;28;20043;-61
2022/02/06 10:08:50;;;;;;;17.17;1.80;;;;;;;;;;5078557;28;20047;-61
2022/02/06 10:11:17;;;;;;;23.95;3.63;;;;;;;;;;5105046;28;20462;-61
2022/02/06 10:13:44;;;;;;;19.80;2.13;;;;;;;;;;5076201;28;20044;-61
2022/02/06 10:16:12;;;;;;;15.77;1.83;;;;;;;;;;5104493;28;20044;-61
2022/02/06 10:18:39;;;;;;;21.75;1.80;;;;;;;;;;5079276;28;20043;-61
2022/02/06 10:21:08;;;;;;;12.05;1.95;;;;;;;;;;5101986;28;20071;-61
2022/02/06 10:23:40;;;;;;;25.20;2.53;;;;;;;;;;5072368;28;20040;-61
2022/02/06 10:26:34;;;;;;;19.55;3.10;;;;;;;;;;5089519;28;20044;-61
2022/02/06 10:29:25;;;;;;;15.68;2.08;;;;;;;;;;5093481;28;20119;-61
2022/02/06 10:31:56;;;;;;;17.23;2.25;;;;;;;;;;5094137;28;20048;-61
2022/02/06 10:34:23;;;;;;;16.42;1.75;;;;;;;;;;5087690;28;20032;-61
2022/02/06 10:36:51;;;;;;;18.38;1.85;;;;;;;;;;5098157;28;20126;-61
2022/02/06 10:39:22;;;;;;;14.50;1.85;;;;;;;;;;5086738;28;20032;-62
2022/02/06 10:41:49;;;;;;;13.50;1.20;;;;;;;;;;5092664;28;20408;-64
2022/02/06 10:44:15;;;;;;;5.95;0.90;;;;;;;;;;5091443;28;20514;-62
2022/02/06 10:46:45;;;;;;;7.20;1.10;;;;;;;;;;5108335;28;20043;-61
2022/02/06 10:49:19;;;;;;;7.75;1.45;;;;;;;;;;5105675;28;20439;-61
2022/02/06 10:51:51;;;;;;;5.35;0.90;;;;;;;;;;5103103;28;20085;-61
2022/02/06 10:54:29;;;;;;;7.88;1.02;;;;;;;;;;5107614;28;20043;-61
2022/02/06 10:56:59;;;;;;;7.45;0.80;;;;;;;;;;5105080;28;20116;-61
2022/02/06 10:59:26;;;;;;;5.13;1.33;;;;;;;;;;5100639;28;20044;-61
2022/02/06 11:01:54;;;;;;;8.27;1.00;;;;;;;;;;5101617;28;20047;-61
2022/02/06 11:04:33;;;;;;;3.95;0.70;;;;;;;;;;5098341;28;20104;-61
2022/02/06 11:07:16;;;;;;;4.95;0.93;;;;;;;;;;5122346;27;20130;-61
2022/02/06 11:09:42;;;;;;;6.43;0.88;;;;;;;;;;5103938;28;20050;-61
2022/02/06 11:12:11;;;;;;;10.35;1.00;;;;;;;;;;5102072;28;20143;-61
2022/02/06 11:14:45;;;;;;;7.15;1.25;;;;;;;;;;5095580;28;20083;-61
2022/02/06 11:17:16;;;;;;;3.38;0.90;;;;;;;;;;5107994;28;20096;-60
2022/02/06 11:19:58;;;;;;;6.13;0.90;;;;;;;;;;5107221;28;20043;-61
2022/02/06 11:22:25;;;;;;;12.57;1.55;;;;;;;;;;5104042;28;20479;-61
2022/02/06 11:24:51;;;;;;;11.77;1.40;;;;;;;;;;5106641;28;20040;-61
2022/02/06 11:27:18;;;;;;;22.13;3.50;;;;;;;;;;5107892;28;20083;-61
2022/02/06 11:29:44;;;;;;;10.88;1.40;;;;;;;;;;5112377;28;20047;-60
2022/02/06 11:32:11;;;;;;;14.48;1.73;;;;;;;;;;5106574;28;20044;-61
2022/02/06 11:34:42;;;;;;;9.75;1.65;;;;;;;;;;5113537;28;20047;-65
2022/02/06 11:45:57;;;;;;;8.55;1.35;;;;;;;;;;5087870;28;20097;-61
2022/02/06 11:48:26;;;;;;;9.98;1.92;;;;;;;;;;5091844;28;20414;-61
2022/02/06 11:50:54;;;;;;;4.10;0.80;;;;;;;;;;5085147;28;20166;-61
2022/02/06 11:53:37;;;;;;;7.00;0.95;;;;;;;;;;5062641;28;20048;-61
2022/02/06 11:56:20;;;;;;;9.15;1.45;;;;;;;;;;5072628;28;20055;-61
2022/02/06 11:58:47;;;;;;;7.03;1.30;;;;;;;;;;5062088;28;20123;-61
2022/02/06 12:01:13;;;;;;;9.05;1.05;;;;;;;;;;5072071;28;20120;-61
2022/02/06 12:03:54;;;;;;;14.45;2.20;;;;;;;;;;5069986;28;20048;-61
2022/02/06 12:06:21;;;;;;;13.88;1.48;;;;;;;;;;5089446;28;20479;-61
2022/02/06 12:08:59;;;;;;;9.02;1.15;;;;;;;;;;5088766;28;20044;-61
2022/02/06 12:11:26;;;;;;;12.80;1.70;;;;;;;;;;5070310;28;20048;-61
2022/02/06 12:14:09;;;;;;;9.90;1.60;;;;;;;;;;5086144;28;20080;-61
2022/02/06 12:16:48;;;;;;;16.38;1.70;;;;;;;;;;5051487;28;20123;-61
2022/02/06 12:19:26;;;;;;;15.90;1.50;;;;;;;;;;5092799;28;20395;-62
2022/02/06 12:21:52;;;;;;;11.82;1.38;;;;;;;;;;5075964;28;20055;-62
2022/02/06 12:24:36;;;;;;;20.08;3.38;;;;;;;;;;5083225;28;20040;-62
2022/02/06 12:27:22;;;;;;;11.95;2.63;;;;;;;;;;5072882;28;20129;-61
2022/02/06 12:29:52;;;;;;;15.38;2.90;;;;;;;;;;5066489;28;20040;-61
2022/02/06 12:32:30;;;;;;;13.85;2.30;;;;;;;;;;5080370;28;20041;-61
2022/02/06 12:37:41;;;;;;;17.00;2.03;;;;;;;;;;5084630;28;20143;-61
2022/02/06 12:40:09;;;;;;;19.25;2.80;;;;;;;;;;5082616;28;20127;-62
2022/02/06 12:42:39;;;;;;;12.40;1.98;;;;;;;;;;5078182;28;20135;-61
2022/02/06 12:45:06;;;;;;;20.85;2.40;;;;;;;;;;5096158;28;20290;-61
2022/02/06 12:47:32;;;;;;;24.17;4.05;;;;;;;;;;5102430;27;20047;-61
2022/02/06 12:49:58;;;;;;;17.55;3.28;;;;;;;;;;5105800;27;20047;-62
2022/02/06 12:52:25;;;;;;;17.48;4.30;;;;;;;;;;5091326;28;20055;-62
2022/02/06 12:54:51;;;;;;;20.00;3.58;;;;;;;;;;5107392;27;20100;-62
2022/02/06 12:57:20;;;;;;;23.45;2.80;;;;;;;;;;5107328;28;20036;-61
2022/02/06 12:59:47;;;;;;;17.98;2.75;;;;;;;;;;5090709;27;20394;-61
2022/02/06 13:02:15;;;;;;;22.85;3.28;;;;;;;;;;5087503;28;20470;-62
2022/02/06 13:04:58;;;;;;;26.33;3.90;;;;;;;;;;5107746;27;20047;-62
2022/02/06 13:07:29;;;;;;;24.25;4.68;;;;;;;;;;5107841;27;20036;-62
2022/02/06 13:10:04;;;;;;;27.70;4.30;;;;;;;;;;5114905;27;20111;-62
2022/02/06 13:12:38;;;;;;;21.55;4.03;;;;;;;;;;5092276;28;20051;-62
2022/02/06 13:18:32;;;;;;;19.13;2.33;;;;;;;;;;5095547;28;20139;-62
2022/02/06 13:20:52;;;;;;;26.00;3.47;;;;;;;;;;5111642;27;20395;-62
2022/02/06 13:26:03;;;;;;;19.30;2.30;;;;;;;;;;5111774;27;20044;-62
2022/02/06 13:31:18;;;;;;;14.48;2.17;;;;;;;;;;5109875;27;20093;-62
2022/02/06 13:33:59;;;;;;;15.07;2.53;;;;;;;;;;5096915;28;20372;-62
2022/02/06 13:39:05;;;;;;;20.85;2.70;;;;;;;;;;5103736;27;20040;-63
2022/02/06 13:41:32;;;;;;;24.13;2.67;;;;;;;;;;5077110;28;20209;-62
2022/02/06 13:43:59;;;;;;;15.25;1.92;;;;;;;;;;5080920;27;20060;-62
2022/02/06 13:46:28;;;;;;;12.43;2.42;;;;;;;;;;5099457;27;20109;-62
2022/02/06 13:48:55;;;;;;;19.80;2.65;;;;;;;;;;5094556;28;20051;-62
2022/02/06 13:51:31;;;;;;;13.90;2.10;;;;;;;;;;5108798;28;20461;-62
2022/02/06 13:53:59;;;;;;;22.20;3.05;;;;;;;;;;5109213;27;20132;-62
2022/02/06 13:56:25;;;;;;;24.38;3.05;;;;;;;;;;5109827;27;20221;-61
2022/02/06 13:58:58;;;;;;;16.80;2.88;;;;;;;;;;5105604;27;20043;-62
2022/02/06 14:01:36;;;;;;;18.25;2.45;;;;;;;;;;5104297;28;20139;-62
2022/02/06 14:04:02;;;;;;;18.90;3.20;;;;;;;;;;5107522;28;20132;-62
2022/02/06 14:06:47;;;;;;;23.60;4.35;;;;;;;;;;5100094;28;20028;-62
2022/02/06 14:09:21;;;;;;;21.15;3.58;;;;;;;;;;5099564;28;20051;-62
2022/02/06 14:11:47;;;;;;;;;;;;;;;;;;5100038;28;20048;-62
2022/02/06 14:14:20;;;;;;;16.25;3.35;;;;;;;;;;5088658;28;19920;-62
2022/02/06 14:16:48;;;;;;;17.58;2.65;;;;;;;;;;5097283;28;20052;-78
2022/02/06 14:19:15;;;;;;;20.65;3.55;;;;;;;;;;5108163;27;20043;-62
2022/02/06 14:21:44;;;;;;;21.05;3.40;;;;;;;;;;5105813;27;20123;-62
2022/02/06 14:24:10;;;;;;;20.13;3.72;;;;;;;;;;5101879;28;20439;-62
2022/02/06 14:26:36;;;;;;;21.02;4.07;;;;;;;;;;5100271;27;20175;-62
2022/02/06 14:29:03;;;;;;;32.50;4.07;;;;;;;;;;5106783;27;20028;-62
2022/02/06 14:31:33;;;;;;;17.55;3.10;;;;;;;;;;5102662;27;20415;-61
2022/02/06 14:34:15;;;;;;;20.33;3.50;;;;;;;;;;5107436;27;20111;-62
2022/02/06 14:36:43;;;;;;;10.35;1.33;;;;;;;;;;5104353;27;20048;-62
2022/02/06 14:39:09;;;;;;;5.53;1.25;;;;;;;;;;5112159;27;20202;-62
2022/02/06 14:41:48;;;;;;;8.00;1.10;;;;;;;;;;5108731;27;20406;-62
2022/02/06 14:44:24;;;;;;;6.70;1.33;;;;;;;;;;5102909;28;20060;-62
2022/02/06 14:46:50;;;;;;;11.93;1.38;;;;;;;;;;5090026;28;20043;-61
2022/02/06 14:49:18;;;;;;;10.75;1.15;;;;;;;;;;5056277;28;20110;-63
2022/02/06 14:51:44;;;;;;;12.65;1.90;;;;;;;;;;5102414;28;20052;-62
2022/02/06 14:54:15;;;;;;;15.60;2.17;;;;;;;;;;5101959;28;20518;-62
2022/02/06 14:56:42;;;;;;;13.27;1.45;;;;;;;;;;5096317;28;20078;-62
2022/02/06 14:59:08;;;;;;;13.07;1.50;;;;;;;;;;5096638;28;20415;-62
2022/02/06 15:01:35;;;;;;;14.35;2.05;;;;;;;;;;5070738;28;20067;-62
2022/02/06 15:04:01;;;;;;;15.25;2.17;;;;;;;;;;5097619;28;20040;-62
2022/02/06 15:06:27;;;;;;;8.80;1.50;;;;;;;;;;5071738;28;20100;-62
2022/02/06 15:08:53;;;;;;;13.25;1.40;;;;;;;;;;5101557;28;20031;-62
2022/02/06 15:11:20;;;;;;;12.15;1.30;;;;;;;;;;5099874;28;20040;-61
2022/02/06 15:13:46;;;;;;;10.35;2.00;;;;;;;;;;5091077;28;20047;-62
2022/02/06 15:16:17;;;;;;;7.57;1.58;;;;;;;;;;5085709;28;20052;-62
2022/02/06 15:19:01;;;;;;;4.90;1.02;;;;;;;;;;5079372;28;20047;-62
2022/02/06 15:21:28;;;;;;;8.32;1.33;;;;;;;;;;5073083;28;20090;-62
2022/02/06 15:23:54;;;;;;;8.65;1.33;;;;;;;;;;5098589;28;20380;-62
2022/02/06 15:26:20;;;;;;;12.52;1.25;;;;;;;;;;5089532;28;20040;-62
2022/02/06 15:28:50;;;;;;;8.23;1.10;;;;;;;;;;5070230;28;20159;-62
2022/02/06 15:31:16;;;;;;;13.32;2.55;;;;;;;;;;5083928;28;20076;-62
2022/02/06 15:33:44;;;;;;;4.78;0.68;;;;;;;;;;5076151;28;20439;-62
2022/02/06 15:36:10;;;;;;;6.05;0.70;;;;;;;;;;5092957;28;20046;-62
2022/02/06 15:38:37;;;;;;;11.32;0.98;;;;;;;;;;5098392;28;20444;-62
2022/02/06 15:41:04;;;;;;;18.88;3.13;;;;;;;;;;5093289;28;20476;-66
2022/02/06 15:43:31;;;;;;;5.32;1.40;;;;;;;;;;5098703;28;20416;-62
2022/02/06 15:45:58;;;;;;;8.70;1.10;;;;;;;;;;5103859;28;20048;-62
2022/02/06 15:48:24;;;;;;;6.97;1.00;;;;;;;;;;5098604;28;20040;-62
2022/02/06 15:50:50;;;;;;;7.60;2.15;;;;;;;;;;5094899;28;20090;-62
2022/02/06 15:53:17;;;;;;;10.65;1.10;;;;;;;;;;5110809;28;20095;-62
2022/02/06 15:55:44;;;;;;;6.40;0.63;;;;;;;;;;5111288;28;20119;-62
2022/02/06 15:58:10;;;;;;;10.48;0.98;;;;;;;;;;5114975;27;20048;-62
2022/02/06 16:00:36;;;;;;;7.55;1.00;;;;;;;;;;5113892;28;20149;-62
2022/02/06 16:03:02;;;;;;;6.97;1.05;;;;;;;;;;5113865;27;20321;-62
2022/02/06 16:05:28;;;;;;;11.55;1.48;;;;;;;;;;5109310;28;20200;-62
2022/02/06 16:07:54;;;;;;;7.97;1.30;;;;;;;;;;5111415;28;20046;-62
2022/02/06 16:10:21;;;;;;;6.75;1.55;;;;;;;;;;5106427;28;20046;-62
2022/02/06 16:12:47;;;;;;;5.45;1.10;;;;;;;;;;5109571;28;20506;-62
2022/02/06 16:15:14;;;;;;;11.35;1.85;;;;;;;;;;5108482;28;20054;-63
2022/02/06 16:17:40;;;;;;;11.50;1.20;;;;;;;;;;5108235;28;20083;-62
2022/02/06 16:20:08;;;;;;;8.70;1.20;;;;;;;;;;5123132;27;20539;-62
2022/02/06 16:22:34;;;;;;;8.95;1.35;;;;;;;;;;5110947;28;20059;-62
2022/02/06 16:25:01;;;;;;;5.60;1.20;;;;;;;;;;5111270;28;20039;-62
2022/02/06 16:27:29;;;;;;;9.13;1.30;;;;;;;;;;5102402;28;20118;-62
2022/02/06 16:29:57;;;;;;;8.55;2.67;;;;;;;;;;5109433;28;20040;-62
2022/02/06 16:32:23;;;;;;;9.60;2.38;;;;;;;;;;5106661;28;20159;-62
2022/02/06 16:34:50;;;;;;;10.80;1.55;;;;;;;;;;5105701;28;20039;-62
2022/02/06 16:37:16;;;;;;;14.90;1.73;;;;;;;;;;5106542;27;20052;-63